Aviation Digital Data Service (ADDS)

Output produced by METARs form (2013 UTC 05 March 2015)
found at http://aviationweather.gov/adds/metars/
 
KPIT 051724Z 0518/0624 34008KT P6SM SCT030 BKN080 
     FM052100 31010KT P6SM BKN035 
     FM060300 32003KT P6SM SKC